createdAt,value
2023-09-29T00:00:00.950Z,15.8
2023-09-29T00:03:01.107Z,15.8
2023-09-29T00:06:00.974Z,15.8
2023-09-29T00:09:00.935Z,15.8
2023-09-29T00:12:00.999Z,15.8
2023-09-29T00:15:00.987Z,15.8
2023-09-29T00:18:01.156Z,15.8
2023-09-29T00:21:00.968Z,15.8
2023-09-29T00:24:01.011Z,15.8
2023-09-29T00:27:00.986Z,15.8
2023-09-29T00:30:00.871Z,15.8
2023-09-29T00:33:01.055Z,15.8
2023-09-29T00:36:00.972Z,15.8
2023-09-29T00:39:01.000Z,15.8
2023-09-29T00:42:01.023Z,15.8
2023-09-29T00:45:01.017Z,15.8
2023-09-29T00:48:01.075Z,15.3
2023-09-29T00:51:00.951Z,15.3
2023-09-29T00:54:00.961Z,15.3
2023-09-29T00:57:01.116Z,15.3
2023-09-29T01:00:00.947Z,15.3
2023-09-29T01:03:01.211Z,15.3
2023-09-29T01:06:00.949Z,15.3
2023-09-29T01:09:00.981Z,15.2
2023-09-29T01:12:01.008Z,15.2
2023-09-29T01:15:01.127Z,15.2
2023-09-29T01:18:01.174Z,15.2
2023-09-29T01:21:00.950Z,15.2
2023-09-29T01:24:01.069Z,15.2
2023-09-29T01:27:01.137Z,15.2
2023-09-29T01:30:01.016Z,15.2
2023-09-29T01:33:01.971Z,15.2
2023-09-29T01:36:01.001Z,15.2
2023-09-29T01:39:00.982Z,15.2
2023-09-29T01:42:01.034Z,15.2
2023-09-29T01:45:00.974Z,15.2
2023-09-29T01:48:01.119Z,15.2
2023-09-29T01:51:00.914Z,15.2
2023-09-29T01:54:00.964Z,15.2
2023-09-29T01:57:01.002Z,15.2
2023-09-29T02:00:01.017Z,15.2
2023-09-29T02:03:01.144Z,15.2
2023-09-29T02:06:00.983Z,15.2
2023-09-29T02:09:00.976Z,15.2
2023-09-29T02:12:00.962Z,15.2
2023-09-29T02:15:01.067Z,15.2
2023-09-29T02:18:01.402Z,15.2
2023-09-29T02:21:01.010Z,15.2
2023-09-29T02:24:01.030Z,15.2
2023-09-29T02:27:00.930Z,15.2
2023-09-29T02:30:00.993Z,15.2
2023-09-29T02:33:01.168Z,15.2
2023-09-29T02:36:01.000Z,15.2
2023-09-29T02:39:00.967Z,15.2
2023-09-29T02:42:00.981Z,15.2
2023-09-29T02:45:01.066Z,15.2
2023-09-29T02:48:01.160Z,15.2
2023-09-29T02:51:01.029Z,15.2
2023-09-29T02:54:01.148Z,15.2
2023-09-29T02:57:01.276Z,15.2
2023-09-29T03:00:01.228Z,14.9
2023-09-29T03:03:01.167Z,14.9
2023-09-29T03:06:00.948Z,14.9
2023-09-29T03:09:00.930Z,14.9
2023-09-29T03:12:01.026Z,14.9
2023-09-29T03:15:00.947Z,14.9
2023-09-29T03:18:01.124Z,14.9
2023-09-29T03:21:01.066Z,14.9
2023-09-29T03:24:01.002Z,14.9
2023-09-29T03:27:00.974Z,14.9
2023-09-29T03:30:01.006Z,14.9
2023-09-29T03:33:01.323Z,14.9
2023-09-29T03:36:01.194Z,14.9
2023-09-29T03:39:01.016Z,14.9
2023-09-29T03:42:01.193Z,14.9
2023-09-29T03:45:01.041Z,14.9
2023-09-29T03:48:01.114Z,14.9
2023-09-29T03:51:00.950Z,14.9
2023-09-29T03:54:00.969Z,14.9
2023-09-29T03:57:01.015Z,14.9
2023-09-29T04:00:01.168Z,14.9
2023-09-29T04:03:01.129Z,14.9
2023-09-29T04:06:01.033Z,14.9
2023-09-29T04:09:00.889Z,14.9
2023-09-29T04:12:01.013Z,14.9
2023-09-29T04:15:01.062Z,14.9
2023-09-29T04:18:01.134Z,14.9
2023-09-29T04:21:01.053Z,14.9
2023-09-29T04:24:01.061Z,14.9
2023-09-29T04:27:01.023Z,14.9
2023-09-29T04:30:01.052Z,14.9
2023-09-29T04:33:01.054Z,14.9
2023-09-29T04:36:01.134Z,14.9
2023-09-29T04:39:01.096Z,14.9
2023-09-29T04:42:01.128Z,14.9
2023-09-29T04:45:01.013Z,14.9
2023-09-29T04:48:01.279Z,14.9
2023-09-29T04:51:00.991Z,14.9
2023-09-29T04:54:01.020Z,14.9
2023-09-29T04:57:01.051Z,14.9
2023-09-29T05:00:01.084Z,14.9
2023-09-29T05:03:01.048Z,14.9
2023-09-29T05:06:00.972Z,14.9
2023-09-29T05:09:01.073Z,14.9
2023-09-29T05:12:01.001Z,14.9
2023-09-29T05:15:00.956Z,14.9
2023-09-29T05:18:01.182Z,14.9
2023-09-29T05:21:01.040Z,14.9
2023-09-29T05:24:01.701Z,14.9
2023-09-29T05:27:01.049Z,14.9
2023-09-29T05:30:01.148Z,14.9
2023-09-29T05:33:01.240Z,14.9
2023-09-29T05:36:01.197Z,14.9
2023-09-29T05:39:02.126Z,14.9
2023-09-29T05:42:01.183Z,14.9
2023-09-29T05:45:01.145Z,14.9
2023-09-29T05:48:01.161Z,14.9
2023-09-29T05:51:01.991Z,14.9
2023-09-29T05:54:01.991Z,14.9
2023-09-29T05:57:00.997Z,14.9
2023-09-29T06:00:01.145Z,15.3
2023-09-29T06:03:01.649Z,15.3
2023-09-29T06:06:01.034Z,15.3
2023-09-29T06:09:01.889Z,15.3
2023-09-29T06:12:01.178Z,15.3
2023-09-29T06:15:01.074Z,15.3
2023-09-29T06:18:01.214Z,15.3
2023-09-29T06:21:01.014Z,15.3
2023-09-29T06:24:01.309Z,15.3
2023-09-29T06:27:01.080Z,15.8
2023-09-29T06:30:01.169Z,15.8
2023-09-29T06:33:01.184Z,15.8
2023-09-29T06:36:01.020Z,15.8
2023-09-29T06:39:01.000Z,15.8
2023-09-29T06:42:01.180Z,15.8
2023-09-29T06:45:01.034Z,15.8
2023-09-29T06:48:01.214Z,15.8
2023-09-29T06:51:02.356Z,15.8
2023-09-29T06:54:01.090Z,15.8
2023-09-29T06:57:01.261Z,15.8
2023-09-29T07:00:01.137Z,15.8
2023-09-29T07:03:01.174Z,16.3
2023-09-29T07:06:01.091Z,16.3
2023-09-29T07:09:01.066Z,16.3
2023-09-29T07:12:01.117Z,16.3
2023-09-29T07:15:01.129Z,16.3
2023-09-29T07:18:01.155Z,16.3
2023-09-29T07:21:01.281Z,16.3
2023-09-29T07:24:01.406Z,16.3
2023-09-29T07:27:01.106Z,16.3
2023-09-29T07:30:01.067Z,16.3
2023-09-29T07:33:01.283Z,16.3
2023-09-29T07:36:01.152Z,16.3
2023-09-29T07:39:01.176Z,16.3
2023-09-29T07:42:01.045Z,16.3
2023-09-29T07:45:01.198Z,16.3
2023-09-29T07:48:01.140Z,16.3
2023-09-29T07:51:01.332Z,16.3
2023-09-29T07:54:01.177Z,16.3
2023-09-29T07:57:01.071Z,16.3
2023-09-29T08:00:01.098Z,16.8
2023-09-29T08:03:01.274Z,16.8
2023-09-29T08:06:01.090Z,16.8
2023-09-29T08:09:01.117Z,16.8
2023-09-29T08:12:01.136Z,16.8
2023-09-29T08:15:01.109Z,16.8
2023-09-29T08:18:01.066Z,16.8
2023-09-29T08:21:01.008Z,16.8
2023-09-29T08:24:01.032Z,16.8
2023-09-29T08:27:01.140Z,16.8
2023-09-29T08:30:01.102Z,16.8
2023-09-29T08:33:22.800Z,16.8
2023-09-29T08:36:01.102Z,16.8
2023-09-29T08:39:01.254Z,16.8
2023-09-29T08:42:01.154Z,17.3
2023-09-29T08:45:01.086Z,17.3
2023-09-29T08:48:01.171Z,17.3
2023-09-29T08:51:01.119Z,17.3
2023-09-29T08:54:01.141Z,17.3
2023-09-29T08:57:01.129Z,17.3
2023-09-29T09:00:01.440Z,17.3
2023-09-29T09:03:01.253Z,17.3
2023-09-29T09:06:01.192Z,17.3
2023-09-29T09:09:01.059Z,17.8
2023-09-29T09:12:01.092Z,17.8
2023-09-29T09:15:01.186Z,17.8
2023-09-29T09:18:01.378Z,17.8
2023-09-29T09:21:01.195Z,17.8
2023-09-29T09:24:01.068Z,17.8
2023-09-29T09:27:01.095Z,17.8
2023-09-29T09:30:01.086Z,17.8
2023-09-29T09:33:01.229Z,17.8
2023-09-29T09:36:01.078Z,18.3
2023-09-29T09:39:01.311Z,18.3
2023-09-29T09:42:01.063Z,18.3
2023-09-29T09:45:01.133Z,18.3
2023-09-29T09:48:01.433Z,18.3
2023-09-29T09:51:01.155Z,18.3
2023-09-29T09:54:01.105Z,18.3
2023-09-29T09:57:01.279Z,18.3
2023-09-29T10:00:01.227Z,18.6
2023-09-29T10:03:01.270Z,18.6
2023-09-29T10:06:01.048Z,18.6
2023-09-29T10:09:01.176Z,18.6
2023-09-29T10:12:01.098Z,18.6
2023-09-29T10:15:01.131Z,18.6
2023-09-29T10:18:01.184Z,18.6
2023-09-29T10:21:01.029Z,18.6
2023-09-29T10:24:01.156Z,19.1
2023-09-29T10:27:01.156Z,19.1
2023-09-29T10:30:01.596Z,19.1
2023-09-29T10:33:01.284Z,19.1
2023-09-29T10:36:01.028Z,19.1
2023-09-29T10:39:01.244Z,19.1
2023-09-29T10:42:01.084Z,19.1
2023-09-29T10:45:01.127Z,19.6
2023-09-29T10:48:01.289Z,19.6
2023-09-29T10:51:01.112Z,19.6
2023-09-29T10:54:01.043Z,19.6
2023-09-29T10:57:01.137Z,19.6
2023-09-29T11:00:01.787Z,20.1
2023-09-29T11:03:01.202Z,20.1
2023-09-29T11:06:01.162Z,20.1
2023-09-29T11:09:01.128Z,20.1
2023-09-29T11:12:01.170Z,20.1
2023-09-29T11:15:00.996Z,20.1
2023-09-29T11:18:01.123Z,20.4
2023-09-29T11:21:01.179Z,20.4
2023-09-29T11:24:01.091Z,20.4
2023-09-29T11:27:01.029Z,20.4
2023-09-29T11:30:01.111Z,20.4
2023-09-29T11:33:01.033Z,20.4
2023-09-29T11:39:01.250Z,21
2023-09-29T11:42:01.172Z,21
2023-09-29T11:45:01.072Z,21
2023-09-29T11:48:01.194Z,21
2023-09-29T11:51:01.106Z,21
2023-09-29T11:54:01.059Z,21.4
2023-09-29T11:57:01.032Z,21.4
2023-09-29T12:00:01.175Z,21.4
2023-09-29T12:03:01.272Z,21.4
2023-09-29T12:06:01.204Z,21.4
2023-09-29T12:09:01.143Z,21.4
2023-09-29T12:12:02.987Z,21.9
2023-09-29T12:15:01.413Z,21.9
2023-09-29T12:18:01.751Z,21.9
2023-09-29T12:21:01.153Z,21.9
2023-09-29T12:24:01.234Z,22.4
2023-09-29T12:27:01.285Z,22.4
2023-09-29T12:30:01.125Z,22.4
2023-09-29T12:33:01.294Z,22.4
2023-09-29T12:36:01.089Z,22.4
2023-09-29T12:39:01.067Z,22.9
2023-09-29T12:42:01.186Z,22.9
2023-09-29T12:45:01.152Z,22.9
2023-09-29T12:48:01.264Z,22.9
2023-09-29T12:51:01.169Z,22.9
2023-09-29T12:54:01.669Z,22.9
2023-09-29T12:57:04.048Z,22.9
2023-09-29T13:00:01.188Z,23.5
2023-09-29T13:03:01.061Z,23.5
2023-09-29T13:06:01.412Z,23.5
2023-09-29T13:09:01.057Z,23.5
2023-09-29T13:12:01.294Z,23.5
2023-09-29T13:15:01.110Z,23.5
2023-09-29T13:18:01.458Z,23.5
2023-09-29T13:21:01.081Z,23.5
2023-09-29T13:24:01.151Z,23.5
2023-09-29T13:27:01.108Z,23.5
2023-09-29T13:30:01.245Z,23.5
2023-09-29T13:33:01.238Z,23.5
2023-09-29T13:36:01.080Z,23.5
2023-09-29T13:39:01.053Z,23.5
2023-09-29T13:42:01.277Z,23.5
2023-09-29T13:45:01.035Z,23.5
2023-09-29T13:48:01.214Z,23.5
2023-09-29T13:51:01.084Z,23.5
2023-09-29T13:54:01.066Z,23.4
2023-09-29T13:57:01.133Z,23.4
2023-09-29T14:00:01.177Z,23.4
2023-09-29T14:03:01.150Z,23.4
2023-09-29T14:06:01.111Z,23.4
2023-09-29T14:09:17.313Z,23.4
2023-09-29T14:12:01.109Z,23.4
2023-09-29T14:15:01.125Z,23.4
2023-09-29T14:18:01.371Z,23.4
2023-09-29T14:21:00.992Z,23.5
2023-09-29T14:24:01.586Z,23.5
2023-09-29T14:27:01.072Z,23.5
2023-09-29T14:30:01.167Z,23.5
2023-09-29T14:33:01.144Z,23.5
2023-09-29T14:36:01.138Z,23.5
2023-09-29T14:39:01.034Z,23.5
2023-09-29T14:42:01.116Z,23.5
2023-09-29T14:45:01.086Z,23.5
2023-09-29T14:48:01.158Z,23.5
2023-09-29T14:51:01.020Z,23.5
2023-09-29T14:54:01.103Z,23.5
2023-09-29T14:57:01.071Z,23.5
2023-09-29T15:00:01.165Z,23.5
2023-09-29T15:03:01.194Z,23.5
2023-09-29T15:06:01.183Z,23.5
2023-09-29T15:09:01.210Z,23.5
2023-09-29T15:12:01.018Z,23.5
2023-09-29T15:15:01.095Z,23.5
2023-09-29T15:18:01.297Z,23.5
2023-09-29T15:21:01.107Z,23.5
2023-09-29T15:24:01.438Z,23.5
2023-09-29T15:27:01.060Z,23.5
2023-09-29T15:30:01.138Z,23.5
2023-09-29T15:33:01.100Z,23.5
2023-09-29T15:36:01.230Z,23.5
2023-09-29T15:39:01.169Z,23.6
2023-09-29T15:42:01.083Z,23.6
2023-09-29T15:45:01.352Z,23.4
2023-09-29T15:48:01.258Z,23.4
2023-09-29T15:51:01.027Z,23.4
2023-09-29T15:54:01.151Z,23.4
2023-09-29T15:57:01.153Z,23.4
2023-09-29T16:00:01.299Z,23.4
2023-09-29T16:03:01.082Z,23.4
2023-09-29T16:06:01.081Z,23.4
2023-09-29T16:09:01.080Z,22.9
2023-09-29T16:12:01.035Z,22.9
2023-09-29T16:15:01.130Z,22.9
2023-09-29T16:18:01.098Z,22.9
2023-09-29T16:21:01.146Z,22.9
2023-09-29T16:24:01.057Z,22.9
2023-09-29T16:27:01.092Z,22.9
2023-09-29T16:30:01.179Z,22.9
2023-09-29T16:33:02.128Z,22.9
2023-09-29T16:36:01.038Z,22.6
2023-09-29T16:39:01.061Z,22.6
2023-09-29T16:42:01.061Z,22.6
2023-09-29T16:45:01.061Z,22.6
2023-09-29T16:48:01.201Z,22.6
2023-09-29T16:51:01.049Z,22.6
2023-09-29T16:54:01.037Z,22.4
2023-09-29T16:57:01.196Z,22.4
2023-09-29T17:00:01.219Z,22.2
2023-09-29T17:03:01.084Z,22.2
2023-09-29T17:06:01.113Z,22.2
2023-09-29T17:09:00.953Z,22.2
2023-09-29T17:12:01.028Z,22.2
2023-09-29T17:15:01.043Z,22.2
2023-09-29T17:18:01.091Z,22.2
2023-09-29T17:21:00.971Z,22.2
2023-09-29T17:24:01.051Z,21.8
2023-09-29T17:27:00.984Z,21.8
2023-09-29T17:30:01.089Z,21.8
2023-09-29T17:33:01.085Z,21.8
2023-09-29T17:36:01.151Z,21.8
2023-09-29T17:39:01.060Z,21.8
2023-09-29T17:42:00.912Z,21.8
2023-09-29T17:45:00.988Z,21.8
2023-09-29T17:48:01.361Z,21.5
2023-09-29T17:51:01.005Z,21.5
2023-09-29T17:54:01.072Z,21.5
2023-09-29T17:57:01.008Z,21.5
2023-09-29T18:00:00.924Z,21.5
2023-09-29T18:03:01.018Z,21.5
2023-09-29T18:06:01.024Z,21.5
2023-09-29T18:09:01.430Z,21.5
2023-09-29T18:12:01.008Z,21.2
2023-09-29T18:15:01.037Z,21.2
2023-09-29T18:18:01.127Z,21.2
2023-09-29T18:21:01.256Z,21.2
2023-09-29T18:24:01.173Z,21.2
2023-09-29T18:27:01.105Z,21.2
2023-09-29T18:30:01.062Z,21.2
2023-09-29T18:33:01.189Z,21.1
2023-09-29T18:36:01.068Z,21.1
2023-09-29T18:39:01.059Z,20.9
2023-09-29T18:42:01.348Z,20.9
2023-09-29T18:45:01.062Z,20.7
2023-09-29T18:48:01.071Z,20.7
2023-09-29T18:51:01.101Z,20.7
2023-09-29T18:54:01.092Z,20.4
2023-09-29T18:57:01.052Z,20.4
2023-09-29T19:00:01.193Z,20.4
2023-09-29T19:03:01.269Z,20.4
2023-09-29T19:06:01.275Z,20
2023-09-29T19:09:01.803Z,20
2023-09-29T19:12:01.048Z,20
2023-09-29T19:15:01.090Z,20
2023-09-29T19:18:01.248Z,19.7
2023-09-29T19:21:01.062Z,19.7
2023-09-29T19:24:01.110Z,19.7
2023-09-29T19:27:01.037Z,19.7
2023-09-29T19:30:01.068Z,19.3
2023-09-29T19:33:01.260Z,19.3
2023-09-29T19:36:01.128Z,19.3
2023-09-29T19:39:01.450Z,18.9
2023-09-29T19:42:01.349Z,18.7
2023-09-29T19:45:01.046Z,18.7
2023-09-29T19:48:01.135Z,18.2
2023-09-29T19:51:01.118Z,18.2
2023-09-29T19:54:01.567Z,17.9
2023-09-29T19:57:01.024Z,17.9
2023-09-29T20:00:01.426Z,17.9
2023-09-29T20:03:01.131Z,17.9
2023-09-29T20:06:01.030Z,17.9
2023-09-29T20:09:01.114Z,17.9
2023-09-29T20:12:01.112Z,17.9
2023-09-29T20:15:00.963Z,17.6
2023-09-29T20:18:01.148Z,17.6
2023-09-29T20:21:01.032Z,17.6
2023-09-29T20:24:01.059Z,17.4
2023-09-29T20:27:01.124Z,17.4
2023-09-29T20:30:01.056Z,17.4
2023-09-29T20:33:01.306Z,17.4
2023-09-29T20:36:01.208Z,17.4
2023-09-29T20:39:01.093Z,17.4
2023-09-29T20:42:01.130Z,17.3
2023-09-29T20:45:01.178Z,17.3
2023-09-29T20:48:01.147Z,17.3
2023-09-29T20:51:01.242Z,17.3
2023-09-29T20:54:01.156Z,17.3
2023-09-29T20:57:01.024Z,17.2
2023-09-29T21:00:01.053Z,17.2
2023-09-29T21:03:01.325Z,17.2
2023-09-29T21:06:01.130Z,17.2
2023-09-29T21:09:01.013Z,17.2
2023-09-29T21:12:01.113Z,17.2
2023-09-29T21:15:01.438Z,17.2
2023-09-29T21:18:01.218Z,17.2
2023-09-29T21:21:00.954Z,17.2
2023-09-29T21:24:01.348Z,17.2
2023-09-29T21:27:01.080Z,17.1
2023-09-29T21:30:01.909Z,17.1
2023-09-29T21:33:01.128Z,17.1
2023-09-29T21:36:01.024Z,17.1
2023-09-29T21:39:01.183Z,17.1
2023-09-29T21:42:01.202Z,16.6
2023-09-29T21:45:01.773Z,16.6
2023-09-29T21:48:01.149Z,16.6
2023-09-29T21:51:01.028Z,16.6
2023-09-29T21:54:01.152Z,16.6
2023-09-29T21:57:00.976Z,16.6
2023-09-29T22:00:03.042Z,16.6
2023-09-29T22:03:01.570Z,16.6
2023-09-29T22:06:01.139Z,16.6
2023-09-29T22:09:01.066Z,16.3
2023-09-29T22:12:01.112Z,16.3
2023-09-29T22:15:01.457Z,16.3
2023-09-29T22:18:01.150Z,16.3
2023-09-29T22:21:01.138Z,16.3
2023-09-29T22:24:01.074Z,16.3
2023-09-29T22:27:01.008Z,16.3
2023-09-29T22:30:01.548Z,16.3
2023-09-29T22:33:01.212Z,16.3
2023-09-29T22:36:01.110Z,16.3
2023-09-29T22:39:01.166Z,16.3
2023-09-29T22:42:01.110Z,16.3
2023-09-29T22:45:01.782Z,16.3
2023-09-29T22:48:01.281Z,16.3
2023-09-29T22:51:01.022Z,16.1
2023-09-29T22:54:01.171Z,16.1
2023-09-29T22:57:01.175Z,16.1
2023-09-29T23:00:01.428Z,16.1
2023-09-29T23:03:01.339Z,16.1
2023-09-29T23:06:01.144Z,16.1
2023-09-29T23:09:01.198Z,16.1
2023-09-29T23:12:01.138Z,16.1
2023-09-29T23:15:00.971Z,16.1
2023-09-29T23:18:01.110Z,16.1
2023-09-29T23:21:01.076Z,16.1
2023-09-29T23:24:01.047Z,15.6
2023-09-29T23:27:01.042Z,15.6
2023-09-29T23:30:01.084Z,15.6
2023-09-29T23:33:01.124Z,15.6
2023-09-29T23:36:01.020Z,15.6
2023-09-29T23:39:00.879Z,15.6
2023-09-29T23:42:00.950Z,15.6
2023-09-29T23:45:00.927Z,15.6
2023-09-29T23:48:01.095Z,15.6
2023-09-29T23:51:01.089Z,15.6
2023-09-29T23:54:01.056Z,15.6
2023-09-29T23:57:00.964Z,15.6
